Time;durP1;ratioP1;P1;durP2;ratioP2;P2;SDS_P1;SDS_P2;PMS_P1;PMS_P2;Temp;Humidity;BMP_temperature;BMP_pressure;BME280_temperature;BME280_humidity;BME280_pressure;Samples;Min_cycle;Max_cycle;Signal;HPM_P1;HPM_P2
2022/03/01 00:02:19;;;;;;;5.40;1.92;;;27.40;84.80;;;;;;5085075;28;20095;-42
2022/03/01 00:04:46;;;;;;;6.80;2.13;;;27.40;84.60;;;;;;5084898;28;20028;-40
2022/03/01 00:07:12;;;;;;;5.93;2.05;;;27.40;84.70;;;;;;5084779;28;20209;-40
2022/03/01 00:09:39;;;;;;;7.47;2.40;;;27.40;84.80;;;;;;5085170;28;20248;-45
2022/03/01 00:12:08;;;;;;;7.60;2.00;;;27.40;84.80;;;;;;5084856;28;20024;-43
2022/03/01 00:14:34;;;;;;;7.47;2.30;;;27.30;84.60;;;;;;5084724;28;20304;-40
2022/03/01 00:17:01;;;;;;;4.88;1.95;;;27.40;84.60;;;;;;5084644;28;20039;-46
2022/03/01 00:19:29;;;;;;;6.38;1.92;;;27.40;84.70;;;;;;5084703;28;20016;-40
2022/03/01 00:22:00;;;;;;;12.60;2.55;;;27.30;84.50;;;;;;5084435;28;20055;-43
2022/03/01 00:24:27;;;;;;;6.80;2.30;;;27.30;84.50;;;;;;5084607;28;20044;-42
2022/03/01 00:26:53;;;;;;;9.23;2.22;;;27.30;84.50;;;;;;5084458;28;20274;-43
2022/03/01 00:29:20;;;;;;;6.88;2.17;;;27.30;84.40;;;;;;5084388;28;20013;-36
2022/03/01 00:31:47;;;;;;;25.13;7.18;;;27.30;84.50;;;;;;5084537;28;20016;-44
2022/03/01 00:34:13;;;;;;;20.95;5.15;;;27.30;84.50;;;;;;5084590;28;20036;-42
2022/03/01 00:36:40;;;;;;;17.45;4.07;;;27.30;84.30;;;;;;5084118;28;20135;-45
2022/03/01 00:39:07;;;;;;;11.80;3.15;;;27.30;84.30;;;;;;5084147;28;20032;-43
2022/03/01 00:41:35;;;;;;;13.30;3.00;;;27.30;84.20;;;;;;5084481;28;20016;-47
2022/03/01 00:44:01;;;;;;;13.48;3.00;;;27.30;84.20;;;;;;5084125;28;20020;-36
2022/03/01 00:46:28;;;;;;;11.02;2.85;;;27.30;84.10;;;;;;5084826;28;20027;-38
2022/03/01 00:48:55;;;;;;;9.20;3.10;;;27.30;84.10;;;;;;5084159;28;20013;-38
2022/03/01 00:51:22;;;;;;;11.30;2.85;;;27.30;84.10;;;;;;5084398;28;20251;-40
2022/03/01 00:53:49;;;;;;;7.43;2.40;;;27.20;84.00;;;;;;5082946;28;20016;-39
2022/03/01 00:56:16;;;;;;;11.40;2.78;;;27.20;83.90;;;;;;5084684;28;20035;-35
2022/03/01 00:58:43;;;;;;;8.73;2.60;;;27.20;83.60;;;;;;5083801;28;20024;-38
2022/03/01 01:01:10;;;;;;;7.57;2.10;;;27.20;83.70;;;;;;5084313;28;20028;-46
2022/03/01 01:03:37;;;;;;;8.90;2.25;;;27.20;83.80;;;;;;5084022;28;20092;-47
2022/03/01 01:06:04;;;;;;;6.63;1.77;;;27.20;83.60;;;;;;5084123;28;20092;-45
2022/03/01 01:08:31;;;;;;;6.03;1.90;;;27.20;83.40;;;;;;5084117;28;20063;-44
2022/03/01 01:10:57;;;;;;;9.60;2.10;;;27.20;83.30;;;;;;5082992;28;20075;-46
2022/03/01 01:13:24;;;;;;;6.95;1.73;;;27.20;83.40;;;;;;5083778;28;20047;-47
2022/03/01 01:15:51;;;;;;;5.55;1.90;;;27.10;83.10;;;;;;5084281;28;20043;-44
2022/03/01 01:18:17;;;;;;;5.18;1.63;;;27.10;83.00;;;;;;5083844;28;20031;-47
2022/03/01 01:20:44;;;;;;;6.72;1.83;;;27.10;82.90;;;;;;5083755;28;20032;-35
2022/03/01 01:23:11;;;;;;;5.70;1.60;;;27.10;82.80;;;;;;5083693;28;20324;-36
2022/03/01 01:25:38;;;;;;;9.88;2.17;;;27.10;82.60;;;;;;5083888;28;20056;-37
2022/03/01 01:28:05;;;;;;;6.65;2.00;;;27.10;82.80;;;;;;5082380;28;20028;-36
2022/03/01 01:30:33;;;;;;;4.03;1.73;;;27.10;82.60;;;;;;5083890;28;20089;-37
2022/03/01 01:33:00;;;;;;;8.10;2.00;;;27.10;82.70;;;;;;5083799;28;20020;-37
2022/03/01 01:35:29;;;;;;;7.18;1.98;;;27.10;82.40;;;;;;5083825;28;20086;-43
2022/03/01 01:37:57;;;;;;;9.38;2.10;;;27.10;82.50;;;;;;5083714;28;20295;-37
2022/03/01 01:40:33;;;;;;;11.02;2.03;;;27.10;82.60;;;;;;5083919;28;20281;-37
2022/03/01 01:43:02;;;;;;;7.85;2.63;;;27.10;82.50;;;;;;5083482;28;20028;-38
2022/03/01 01:45:29;;;;;;;7.20;2.25;;;27.10;82.60;;;;;;5083947;28;20313;-42
2022/03/01 01:47:59;;;;;;;6.47;2.00;;;27.10;82.20;;;;;;5084446;28;20083;-36
2022/03/01 01:50:27;;;;;;;8.35;1.80;;;27.10;82.30;;;;;;5087322;28;20031;-35
2022/03/01 01:52:55;;;;;;;5.68;1.48;;;27.10;82.40;;;;;;5087651;28;20040;-39
2022/03/01 01:55:23;;;;;;;8.50;2.00;;;27.10;82.40;;;;;;5087748;28;20024;-43
2022/03/01 01:57:50;;;;;;;4.20;1.52;;;27.00;81.70;;;;;;5087448;28;20039;-39
2022/03/01 02:00:18;;;;;;;9.15;1.92;;;27.00;82.10;;;;;;5087731;28;20017;-35
2022/03/01 02:02:45;;;;;;;8.82;1.83;;;27.00;82.30;;;;;;5087393;28;20070;-40
2022/03/01 02:05:12;;;;;;;7.60;1.73;;;27.00;82.40;;;;;;5087606;28;20043;-45
2022/03/01 02:07:46;;;;;;;5.57;1.90;;;27.00;82.40;;;;;;5087642;28;20012;-45
2022/03/01 02:10:13;;;;;;;5.70;1.80;;;27.00;82.30;;;;;;5087396;28;20035;-46
2022/03/01 02:12:40;;;;;;;8.82;1.85;;;27.00;82.50;;;;;;5087581;28;20058;-40
2022/03/01 02:15:08;;;;;;;6.07;1.60;;;27.00;82.30;;;;;;5087372;28;20036;-35
2022/03/01 02:17:37;;;;;;;6.35;1.63;;;27.00;82.30;;;;;;5087048;28;20375;-49
2022/03/01 02:20:08;;;;;;;7.40;1.50;;;27.00;82.40;;;;;;5087475;28;20066;-39
2022/03/01 02:22:34;;;;;;;4.28;1.38;;;27.00;82.40;;;;;;5087221;28;20313;-38
2022/03/01 02:25:01;;;;;;;4.70;1.50;;;27.00;82.40;;;;;;5087061;28;20044;-38
2022/03/01 02:27:28;;;;;;;6.55;1.50;;;27.00;82.20;;;;;;5087604;28;20032;-38
2022/03/01 02:29:55;;;;;;;9.00;1.70;;;27.00;82.20;;;;;;5086901;28;20264;-38
2022/03/01 02:32:22;;;;;;;9.70;1.70;;;27.00;82.20;;;;;;5086700;28;20204;-40
2022/03/01 02:34:48;;;;;;;6.20;1.60;;;27.10;82.30;;;;;;5086679;28;20063;-40
2022/03/01 02:37:15;;;;;;;6.55;1.23;;;27.10;82.30;;;;;;5086790;28;20021;-41
2022/03/01 02:39:42;;;;;;;7.55;1.67;;;27.00;82.20;;;;;;5086586;28;20028;-45
2022/03/01 02:42:08;;;;;;;4.35;1.55;;;27.00;82.30;;;;;;5086652;28;20104;-40
2022/03/01 02:44:36;;;;;;;6.30;1.50;;;27.00;82.40;;;;;;5086665;28;20082;-40
2022/03/01 02:47:03;;;;;;;7.55;1.67;;;27.00;82.40;;;;;;5086462;28;20036;-48
2022/03/01 02:49:30;;;;;;;6.93;1.42;;;27.00;82.40;;;;;;5086778;28;20174;-40
2022/03/01 02:51:56;;;;;;;6.13;1.38;;;27.00;82.40;;;;;;5086475;28;20088;-45
2022/03/01 02:54:23;;;;;;;7.25;1.40;;;27.00;82.30;;;;;;5086391;28;20036;-40
2022/03/01 02:56:52;;;;;;;7.78;1.55;;;27.00;82.40;;;;;;5086350;28;20095;-41
2022/03/01 02:59:18;;;;;;;5.78;2.00;;;27.00;82.60;;;;;;5086330;28;20122;-41
2022/03/01 03:01:45;;;;;;;7.50;1.42;;;27.00;82.70;;;;;;5085434;28;20028;-42
2022/03/01 03:04:11;;;;;;;7.78;1.50;;;27.00;82.80;;;;;;5086035;28;20034;-41
2022/03/01 03:06:38;;;;;;;8.20;1.77;;;26.90;83.00;;;;;;5086227;28;20052;-43
2022/03/01 03:09:04;;;;;;;4.82;1.60;;;26.90;83.00;;;;;;5086165;28;20185;-41
2022/03/01 03:11:31;;;;;;;6.25;1.70;;;26.90;83.00;;;;;;5086482;28;20162;-41
2022/03/01 03:13:57;;;;;;;6.35;1.65;;;26.90;83.20;;;;;;5086166;28;20055;-43
2022/03/01 03:16:27;;;;;;;13.20;2.15;;;26.90;83.20;;;;;;5086582;28;20069;-40
2022/03/01 03:18:53;;;;;;;6.72;2.17;;;26.90;83.00;;;;;;5085781;28;20340;-41
2022/03/01 03:21:21;;;;;;;4.05;1.77;;;26.90;83.20;;;;;;5085835;28;20021;-41
2022/03/01 03:23:48;;;;;;;10.55;2.00;;;26.80;83.00;;;;;;5085800;28;20024;-40
2022/03/01 03:26:15;;;;;;;8.63;2.08;;;26.80;82.90;;;;;;5086110;28;20024;-41
2022/03/01 03:28:41;;;;;;;10.45;2.05;;;26.80;83.20;;;;;;5085837;28;20024;-40
2022/03/01 03:31:08;;;;;;;9.02;1.55;;;26.90;83.00;;;;;;5085638;28;20050;-43
2022/03/01 03:33:35;;;;;;;6.95;1.75;;;26.80;83.10;;;;;;5085568;28;20029;-45
2022/03/01 03:36:03;;;;;;;6.05;1.80;;;26.80;82.90;;;;;;5086108;28;20036;-41
2022/03/01 03:38:29;;;;;;;9.27;1.67;;;26.90;83.00;;;;;;5085695;28;20031;-41
2022/03/01 03:40:56;;;;;;;6.90;1.60;;;26.80;82.90;;;;;;5085934;28;20020;-40
2022/03/01 03:43:23;;;;;;;6.10;1.70;;;26.80;82.90;;;;;;5085500;28;20103;-40
2022/03/01 03:45:49;;;;;;;7.10;1.50;;;26.80;83.00;;;;;;5085792;28;20255;-40
2022/03/01 03:48:16;;;;;;;5.85;1.48;;;26.80;82.90;;;;;;5085256;28;20082;-41
2022/03/01 03:50:43;;;;;;;8.63;1.88;;;26.80;82.90;;;;;;5085629;28;20021;-40
2022/03/01 03:53:10;;;;;;;6.05;1.67;;;26.80;82.80;;;;;;5085420;28;20036;-40
2022/03/01 03:55:36;;;;;;;4.25;1.45;;;26.80;82.90;;;;;;5085660;28;20044;-42
2022/03/01 03:58:03;;;;;;;4.82;1.70;;;26.80;82.90;;;;;;5085111;28;20369;-47
2022/03/01 04:00:31;;;;;;;6.78;1.73;;;26.80;82.90;;;;;;5085379;28;20064;-44
2022/03/01 04:02:58;;;;;;;4.13;1.40;;;26.80;82.80;;;;;;5083792;28;20042;-41
2022/03/01 04:05:25;;;;;;;4.38;1.40;;;26.80;82.80;;;;;;5085219;28;20212;-40
2022/03/01 04:07:51;;;;;;;8.77;1.35;;;26.80;82.90;;;;;;5084964;28;20250;-42
2022/03/01 04:10:19;;;;;;;6.50;2.40;;;26.80;82.80;;;;;;5085060;28;20024;-40
2022/03/01 04:12:46;;;;;;;11.68;3.63;;;26.80;82.90;;;;;;5084246;28;20035;-43
2022/03/01 04:15:13;;;;;;;8.68;4.38;;;26.80;82.90;;;;;;5084994;28;20024;-41
2022/03/01 04:17:40;;;;;;;11.88;4.00;;;26.70;83.10;;;;;;5084814;28;20031;-43
2022/03/01 04:20:08;;;;;;;10.30;3.53;;;26.70;83.10;;;;;;5084904;28;20317;-42
2022/03/01 04:22:35;;;;;;;10.55;4.50;;;26.70;82.80;;;;;;5084665;28;20325;-45
2022/03/01 04:25:03;;;;;;;9.80;3.70;;;26.70;82.80;;;;;;5084498;28;20056;-42
2022/03/01 04:27:29;;;;;;;7.18;3.10;;;26.70;82.90;;;;;;5084733;28;20020;-39
2022/03/01 04:29:56;;;;;;;8.32;3.20;;;26.70;82.80;;;;;;5084991;28;20070;-41
2022/03/01 04:32:22;;;;;;;7.28;2.70;;;26.60;83.20;;;;;;5084421;28;20032;-39
2022/03/01 04:34:49;;;;;;;13.55;2.97;;;26.70;83.20;;;;;;5084630;28;20028;-39
2022/03/01 04:37:15;;;;;;;9.65;2.42;;;26.70;83.00;;;;;;5084462;28;20029;-40
2022/03/01 04:39:42;;;;;;;8.73;2.50;;;26.60;82.80;;;;;;5084406;28;20028;-40
2022/03/01 04:42:09;;;;;;;5.28;2.35;;;26.60;82.70;;;;;;5084511;28;20280;-45
2022/03/01 04:44:36;;;;;;;6.07;2.40;;;26.70;82.80;;;;;;5084289;28;20044;-42
2022/03/01 04:47:03;;;;;;;8.00;2.13;;;26.60;82.60;;;;;;5084095;28;20018;-42
2022/03/01 04:49:31;;;;;;;7.78;1.95;;;26.60;82.70;;;;;;5084411;28;20040;-40
2022/03/01 04:51:57;;;;;;;4.47;1.92;;;26.60;82.60;;;;;;5084304;28;20305;-40
2022/03/01 04:54:24;;;;;;;11.60;2.22;;;26.60;82.60;;;;;;5084168;28;20024;-42
2022/03/01 04:56:51;;;;;;;8.50;2.50;;;26.60;82.90;;;;;;5084459;28;20320;-43
2022/03/01 04:59:17;;;;;;;7.43;2.30;;;26.70;82.80;;;;;;5084249;28;20027;-40
2022/03/01 05:01:44;;;;;;;6.88;1.88;;;26.60;82.70;;;;;;5083917;28;20109;-45
2022/03/01 05:04:11;;;;;;;5.18;1.80;;;26.60;82.40;;;;;;5083829;28;20025;-40
2022/03/01 05:06:38;;;;;;;6.68;2.10;;;26.60;82.40;;;;;;5084249;28;20308;-41
2022/03/01 05:09:04;;;;;;;9.57;1.90;;;26.70;82.40;;;;;;5083963;28;20033;-44
2022/03/01 05:11:31;;;;;;;6.45;1.88;;;26.60;82.30;;;;;;5084463;28;20040;-40
2022/03/01 05:13:57;;;;;;;5.22;1.90;;;26.60;82.20;;;;;;5083972;28;20371;-42
2022/03/01 05:16:24;;;;;;;4.47;1.60;;;26.70;82.10;;;;;;5084444;28;20028;-40
2022/03/01 05:18:51;;;;;;;6.85;1.80;;;26.60;82.00;;;;;;5083790;28;20032;-42
2022/03/01 05:21:17;;;;;;;4.88;1.67;;;26.70;82.10;;;;;;5084317;28;20307;-40
2022/03/01 05:23:44;;;;;;;5.20;1.83;;;26.70;81.90;;;;;;5083438;28;20029;-43
2022/03/01 05:26:11;;;;;;;6.80;1.98;;;26.70;81.80;;;;;;5084068;28;20103;-42
2022/03/01 05:28:37;;;;;;;4.70;1.50;;;26.70;81.90;;;;;;5083820;28;20012;-41
2022/03/01 05:31:04;;;;;;;8.77;1.58;;;26.70;81.60;;;;;;5084298;28;20040;-40
2022/03/01 05:33:31;;;;;;;6.30;1.58;;;26.70;81.60;;;;;;5083652;28;20044;-42
2022/03/01 05:35:58;;;;;;;4.50;1.38;;;26.70;81.60;;;;;;5084034;28;20256;-40
2022/03/01 05:38:25;;;;;;;9.52;1.25;;;26.70;80.80;;;;;;5083751;28;20033;-40
2022/03/01 05:40:51;;;;;;;5.47;1.10;;;26.70;80.70;;;;;;5083935;28;20091;-41
2022/03/01 05:43:18;;;;;;;2.97;1.00;;;26.70;80.50;;;;;;5083729;28;20067;-41
2022/03/01 05:45:44;;;;;;;5.07;0.93;;;26.70;80.70;;;;;;5083959;28;20098;-41
2022/03/01 05:48:11;;;;;;;4.63;1.23;;;26.70;80.90;;;;;;5083413;28;20035;-40
2022/03/01 05:50:38;;;;;;;4.28;1.00;;;26.70;80.90;;;;;;5083573;28;20037;-42
2022/03/01 05:53:04;;;;;;;5.75;0.98;;;26.70;81.00;;;;;;5083477;28;20059;-42
2022/03/01 05:55:31;;;;;;;4.03;0.90;;;26.70;81.20;;;;;;5083889;28;20066;-40
2022/03/01 05:57:58;;;;;;;3.67;0.80;;;26.70;81.20;;;;;;5083561;28;20032;-40
2022/03/01 06:00:25;;;;;;;3.53;0.77;;;26.70;81.10;;;;;;5083728;28;20033;-41
2022/03/01 06:02:52;;;;;;;5.05;0.98;;;26.70;81.20;;;;;;5083349;28;20332;-46
2022/03/01 06:05:19;;;;;;;3.35;0.90;;;26.70;81.10;;;;;;5083614;28;20415;-34
2022/03/01 06:07:46;;;;;;;8.45;0.70;;;26.70;81.00;;;;;;5083455;28;20020;-34
2022/03/01 06:10:13;;;;;;;7.38;1.13;;;26.70;80.70;;;;;;5083562;28;20033;-42
2022/03/01 06:12:40;;;;;;;4.72;0.88;;;26.70;80.70;;;;;;5083321;28;20193;-44
2022/03/01 06:15:07;;;;;;;5.55;0.80;;;26.70;80.80;;;;;;5083532;28;20032;-40
2022/03/01 06:17:33;;;;;;;2.92;0.80;;;26.70;80.60;;;;;;5083217;28;20095;-47
2022/03/01 06:20:01;;;;;;;3.72;0.77;;;26.70;81.00;;;;;;5083421;28;20063;-41
2022/03/01 06:22:29;;;;;;;4.80;0.77;;;26.70;81.10;;;;;;5083426;28;20043;-41
2022/03/01 06:24:55;;;;;;;4.40;0.80;;;26.70;81.20;;;;;;5082956;28;20067;-46
2022/03/01 06:27:23;;;;;;;5.95;1.00;;;26.70;81.30;;;;;;5083235;28;20081;-41
2022/03/01 06:29:49;;;;;;;7.78;1.00;;;26.70;81.70;;;;;;5083439;28;20297;-38
2022/03/01 06:32:16;;;;;;;4.45;0.90;;;26.60;81.60;;;;;;5083182;28;20028;-42
2022/03/01 06:34:43;;;;;;;1.90;0.88;;;26.60;81.80;;;;;;5083226;28;20027;-45
2022/03/01 06:37:13;;;;;;;3.38;0.80;;;26.70;81.90;;;;;;5086290;28;20035;-46
2022/03/01 06:39:44;;;;;;;5.35;0.90;;;26.60;82.10;;;;;;5086672;28;20029;-45
2022/03/01 06:42:12;;;;;;;8.23;1.00;;;26.70;82.30;;;;;;5086695;28;20048;-47
2022/03/01 06:44:38;;;;;;;10.23;0.98;;;26.60;82.00;;;;;;5086708;28;20047;-50
2022/03/01 06:47:06;;;;;;;4.57;0.82;;;26.60;82.00;;;;;;5086497;28;20182;-39
2022/03/01 06:49:32;;;;;;;3.17;0.80;;;26.70;82.10;;;;;;5086710;28;20324;-40
2022/03/01 06:51:59;;;;;;;3.75;0.93;;;26.60;82.10;;;;;;5086540;28;20225;-40
2022/03/01 06:54:26;;;;;;;5.15;0.65;;;26.70;81.80;;;;;;5086358;28;20362;-37
2022/03/01 06:56:53;;;;;;;4.78;0.90;;;26.70;81.80;;;;;;5086825;28;20070;-36
2022/03/01 06:59:20;;;;;;;7.25;1.20;;;26.60;81.50;;;;;;5086543;28;20040;-34
2022/03/01 07:01:46;;;;;;;3.58;0.90;;;26.60;81.70;;;;;;5086150;28;20130;-37
2022/03/01 07:04:13;;;;;;;4.57;0.82;;;26.60;81.50;;;;;;5086213;28;20062;-37
2022/03/01 07:06:39;;;;;;;2.47;0.60;;;26.60;81.60;;;;;;5086328;28;20036;-43
2022/03/01 07:09:06;;;;;;;3.67;0.80;;;26.70;81.80;;;;;;5086426;28;20016;-44
2022/03/01 07:11:32;;;;;;;4.32;0.85;;;26.60;81.50;;;;;;5086748;28;20257;-49
2022/03/01 07:13:59;;;;;;;5.63;0.90;;;26.70;81.50;;;;;;5086210;28;20029;-42
2022/03/01 07:16:25;;;;;;;4.47;0.70;;;26.60;81.30;;;;;;5086689;28;20031;-42
2022/03/01 07:18:54;;;;;;;3.92;0.80;;;26.60;81.50;;;;;;5086015;28;20364;-43
2022/03/01 07:21:22;;;;;;;3.85;0.70;;;26.70;81.50;;;;;;5086530;28;20225;-41
2022/03/01 07:23:48;;;;;;;2.65;0.55;;;26.70;81.90;;;;;;5085785;28;20016;-42
2022/03/01 07:26:16;;;;;;;4.88;0.88;;;26.60;81.30;;;;;;5086378;28;20028;-41
2022/03/01 07:28:42;;;;;;;2.08;0.60;;;26.60;81.30;;;;;;5085822;28;20301;-42
2022/03/01 07:31:09;;;;;;;2.97;0.95;;;26.60;81.20;;;;;;5086341;28;20023;-43
2022/03/01 07:33:38;;;;;;;3.30;0.85;;;26.60;81.00;;;;;;5085749;28;20304;-41
2022/03/01 07:36:05;;;;;;;5.50;0.88;;;26.60;81.00;;;;;;5085597;28;20032;-41
2022/03/01 07:38:31;;;;;;;5.30;1.00;;;26.60;81.10;;;;;;5085691;28;20024;-41
2022/03/01 07:40:58;;;;;;;2.70;0.80;;;26.60;81.10;;;;;;5086057;28;20313;-41
2022/03/01 07:43:25;;;;;;;2.90;0.70;;;26.60;80.90;;;;;;5085616;28;20032;-42
2022/03/01 07:45:51;;;;;;;5.32;0.93;;;26.60;81.10;;;;;;5085782;28;20032;-42
2022/03/01 07:48:18;;;;;;;4.97;0.82;;;26.70;80.90;;;;;;5085259;28;20083;-42
2022/03/01 07:50:44;;;;;;;5.85;0.80;;;26.60;80.90;;;;;;5085786;28;20342;-48
2022/03/01 07:53:11;;;;;;;2.72;0.70;;;26.60;80.90;;;;;;5085394;28;20020;-44
2022/03/01 07:55:37;;;;;;;2.85;0.73;;;26.60;80.90;;;;;;5085594;28;20239;-39
2022/03/01 07:58:04;;;;;;;4.55;1.00;;;26.60;81.10;;;;;;5085274;28;20058;-39
2022/03/01 08:00:30;;;;;;;4.32;0.90;;;26.60;80.60;;;;;;5085551;28;20216;-43
2022/03/01 08:02:57;;;;;;;7.07;0.68;;;26.60;80.80;;;;;;5085136;28;20320;-39
2022/03/01 08:05:24;;;;;;;1.88;0.50;;;26.60;80.70;;;;;;5085519;28;20036;-43
2022/03/01 08:07:52;;;;;;;3.20;0.70;;;26.60;80.70;;;;;;5085171;28;20058;-41
2022/03/01 08:10:19;;;;;;;4.68;0.75;;;26.60;80.60;;;;;;5085183;28;20297;-39
2022/03/01 08:12:46;;;;;;;3.75;0.70;;;26.60;80.60;;;;;;5084981;28;20033;-40
2022/03/01 08:15:12;;;;;;;4.25;0.60;;;26.60;80.60;;;;;;5085063;28;20032;-39
2022/03/01 08:18:06;;;;;;;3.67;0.77;;;26.60;80.70;;;;;;5084888;28;20024;-39
2022/03/01 08:20:33;;;;;;;5.65;0.80;;;26.60;80.70;;;;;;5081386;28;20040;-39
2022/03/01 08:22:59;;;;;;;5.03;0.80;;;26.60;80.60;;;;;;5084556;28;20027;-39
2022/03/01 08:25:26;;;;;;;3.03;0.52;;;26.60;80.70;;;;;;5084807;28;20053;-41
2022/03/01 08:27:53;;;;;;;4.57;0.90;;;26.60;80.70;;;;;;5084821;28;20028;-42
2022/03/01 08:30:20;;;;;;;1.92;0.50;;;26.60;80.80;;;;;;5084674;28;20111;-42
2022/03/01 08:32:47;;;;;;;6.25;0.85;;;26.60;80.70;;;;;;5084607;28;20029;-40
2022/03/01 08:35:14;;;;;;;3.17;0.70;;;26.60;80.70;;;;;;5084688;28;20024;-40
2022/03/01 08:37:41;;;;;;;4.35;0.63;;;26.60;80.70;;;;;;5084665;28;20100;-41
2022/03/01 08:40:08;;;;;;;3.97;0.80;;;26.60;80.60;;;;;;5084644;28;20414;-41
2022/03/01 08:42:35;;;;;;;4.22;0.82;;;26.60;80.50;;;;;;5084395;28;20070;-39
2022/03/01 08:45:02;;;;;;;2.47;0.52;;;26.60;80.60;;;;;;5084451;28;20036;-39
2022/03/01 08:47:28;;;;;;;3.25;0.65;;;26.60;80.50;;;;;;5084548;28;20012;-40
2022/03/01 08:49:55;;;;;;;1.98;0.38;;;26.60;80.20;;;;;;5084470;28;20077;-39
2022/03/01 08:52:21;;;;;;;5.45;0.70;;;26.60;80.20;;;;;;5084159;28;20074;-39
2022/03/01 08:54:48;;;;;;;2.83;0.70;;;26.60;80.30;;;;;;5084362;28;20032;-39
2022/03/01 08:57:14;;;;;;;3.05;0.80;;;26.60;80.70;;;;;;5084247;28;20052;-39
2022/03/01 08:59:41;;;;;;;4.85;0.57;;;26.60;80.70;;;;;;5083650;28;20028;-44
2022/03/01 09:02:08;;;;;;;6.18;0.77;;;26.60;81.00;;;;;;5084311;28;20205;-43
2022/03/01 09:04:35;;;;;;;5.13;0.85;;;26.60;80.90;;;;;;5084015;28;20052;-41
2022/03/01 09:07:04;;;;;;;3.05;0.75;;;26.60;81.20;;;;;;5083980;28;20414;-40
2022/03/01 09:09:31;;;;;;;2.10;0.60;;;26.60;80.80;;;;;;5084066;28;20214;-40
2022/03/01 09:11:58;;;;;;;4.32;0.80;;;26.60;80.80;;;;;;5084008;28;20012;-43
2022/03/01 09:14:25;;;;;;;3.75;0.52;;;26.60;81.10;;;;;;5083899;28;20052;-39
2022/03/01 09:16:51;;;;;;;3.22;0.73;;;26.60;81.00;;;;;;5083951;28;20078;-42
2022/03/01 09:19:18;;;;;;;2.75;0.60;;;26.60;81.00;;;;;;5083911;28;20027;-39
2022/03/01 09:21:45;;;;;;;4.90;0.70;;;26.60;80.90;;;;;;5083820;28;20032;-40
2022/03/01 09:24:11;;;;;;;4.50;1.02;;;26.60;80.80;;;;;;5083576;28;20040;-45
2022/03/01 09:26:38;;;;;;;4.05;0.63;;;26.60;80.90;;;;;;5083899;28;20032;-41
2022/03/01 09:29:05;;;;;;;2.30;0.70;;;26.60;81.00;;;;;;5083748;28;20209;-49
2022/03/01 09:31:32;;;;;;;2.63;0.63;;;26.60;81.20;;;;;;5084321;28;20322;-39
2022/03/01 09:33:58;;;;;;;3.65;0.65;;;26.60;81.00;;;;;;5083910;28;20024;-39
2022/03/01 09:36:25;;;;;;;4.25;0.70;;;26.60;81.00;;;;;;5084263;28;20024;-40
2022/03/01 09:38:52;;;;;;;6.35;0.77;;;26.60;81.10;;;;;;5083956;28;20036;-42
2022/03/01 09:41:19;;;;;;;2.53;0.77;;;26.60;81.20;;;;;;5084153;28;20099;-42
2022/03/01 09:43:45;;;;;;;5.30;0.90;;;26.60;81.30;;;;;;5083716;28;20255;-39
2022/03/01 09:46:12;;;;;;;4.88;0.68;;;26.60;81.10;;;;;;5083921;28;20273;-40
2022/03/01 09:48:39;;;;;;;4.38;0.70;;;26.60;81.40;;;;;;5083648;28;20083;-39
2022/03/01 09:51:08;;;;;;;6.18;0.75;;;26.60;81.60;;;;;;5084152;28;20036;-40
2022/03/01 09:53:35;;;;;;;1.98;0.60;;;26.60;81.80;;;;;;5083458;28;20016;-40
2022/03/01 09:56:06;;;;;;;3.38;0.68;;;26.50;82.00;;;;;;5083946;28;20103;-40
2022/03/01 09:58:32;;;;;;;3.05;0.80;;;26.50;81.90;;;;;;5083471;28;20029;-46
2022/03/01 10:00:59;;;;;;;3.38;0.80;;;26.50;81.90;;;;;;5083819;28;20059;-39
2022/03/01 10:03:28;;;;;;;2.75;0.88;;;26.50;82.50;;;;;;5083566;28;20029;-42
2022/03/01 10:06:05;;;;;;;2.58;0.90;;;26.50;82.90;;;;;;5083212;28;20052;-50
2022/03/01 10:08:31;;;;;;;4.38;1.17;;;26.50;83.60;;;;;;5083456;28;20052;-40
2022/03/01 10:10:58;;;;;;;4.15;1.10;;;26.50;83.50;;;;;;5085102;28;20021;-40
2022/03/01 10:13:28;;;;;;;5.68;1.50;;;26.50;83.50;;;;;;5087361;28;20028;-40
2022/03/01 10:16:05;;;;;;;6.18;1.45;;;26.50;83.60;;;;;;5087551;28;20242;-39
2022/03/01 10:18:34;;;;;;;4.05;1.50;;;26.50;84.00;;;;;;5087210;28;20024;-40
2022/03/01 10:21:04;;;;;;;5.30;1.67;;;26.60;84.70;;;;;;5087524;28;20039;-40
2022/03/01 10:23:30;;;;;;;5.57;1.63;;;26.50;84.70;;;;;;5087046;28;20035;-39
2022/03/01 10:25:57;;;;;;;5.13;1.52;;;26.50;84.60;;;;;;5087027;28;20056;-41
2022/03/01 10:28:36;;;;;;;5.85;1.60;;;26.50;84.70;;;;;;5087207;28;20052;-45
2022/03/01 10:31:17;;;;;;;6.80;2.15;;;26.50;85.30;;;;;;5087197;28;20245;-43
2022/03/01 10:34:02;;;;;;;7.28;2.08;;;26.40;85.70;;;;;;5086845;28;20024;-40
2022/03/01 10:36:36;;;;;;;6.53;2.28;;;26.40;85.70;;;;;;5087121;28;20036;-41
2022/03/01 10:39:09;;;;;;;5.10;2.63;;;26.30;85.80;;;;;;5087066;28;20181;-40
2022/03/01 10:41:41;;;;;;;6.05;2.47;;;26.30;85.70;;;;;;5086816;28;20347;-41
2022/03/01 10:44:14;;;;;;;;;;;26.30;86.30;;;;;;5087060;28;20066;-44
2022/03/01 10:46:43;;;;;;;5.38;2.60;;;26.30;85.90;;;;;;5086567;28;19916;-41
2022/03/01 10:49:11;;;;;;;10.07;3.22;;;26.30;86.00;;;;;;5086372;28;20031;-40
2022/03/01 10:51:52;;;;;;;7.70;2.90;;;26.30;86.10;;;;;;5086515;28;20034;-44
2022/03/01 10:54:30;;;;;;;6.85;2.97;;;26.30;86.30;;;;;;5086299;28;20050;-43
2022/03/01 10:56:58;;;;;;;8.40;3.10;;;26.30;86.70;;;;;;5086371;28;20022;-41
2022/03/01 10:59:27;;;;;;;7.22;3.22;;;26.30;86.80;;;;;;5086460;28;20364;-43
2022/03/01 11:01:54;;;;;;;3.88;2.60;;;26.30;86.90;;;;;;5086100;28;20026;-42
2022/03/01 11:04:21;;;;;;;8.10;3.00;;;26.30;86.70;;;;;;5086160;28;20028;-45
2022/03/01 11:06:49;;;;;;;7.43;2.80;;;26.30;86.70;;;;;;5086338;28;20048;-41
2022/03/01 11:09:17;;;;;;;5.78;3.40;;;26.30;86.60;;;;;;5086563;28;20127;-43
2022/03/01 11:11:45;;;;;;;5.95;2.65;;;26.30;86.60;;;;;;5086386;28;20055;-39
2022/03/01 11:14:15;;;;;;;7.60;2.80;;;26.30;86.50;;;;;;5086130;28;20190;-36
2022/03/01 11:17:00;;;;;;;7.90;2.63;;;26.30;86.50;;;;;;5086048;28;20024;-35
2022/03/01 11:19:50;;;;;;;5.18;2.60;;;26.30;86.50;;;;;;5085939;28;20028;-39
2022/03/01 11:22:26;;;;;;;5.43;2.50;;;26.20;86.80;;;;;;5085690;28;20021;-41
2022/03/01 11:24:54;;;;;;;8.15;2.95;;;26.20;87.10;;;;;;5085876;28;20105;-49
2022/03/01 11:27:23;;;;;;;8.38;3.10;;;26.20;87.50;;;;;;5086237;28;20041;-37
2022/03/01 11:29:50;;;;;;;5.93;2.72;;;26.00;87.50;;;;;;5086064;28;20036;-36
2022/03/01 11:32:22;;;;;;;7.57;3.13;;;26.00;87.70;;;;;;5085814;28;20300;-35
2022/03/01 11:35:01;;;;;;;8.70;2.77;;;26.00;88.00;;;;;;5085913;28;20040;-36
2022/03/01 11:37:28;;;;;;;6.43;2.30;;;26.00;88.10;;;;;;5085738;28;20070;-35
2022/03/01 11:40:04;;;;;;;7.05;2.20;;;26.00;88.00;;;;;;5085977;28;20043;-37
2022/03/01 11:42:34;;;;;;;6.70;2.10;;;25.90;88.00;;;;;;5085636;28;20055;-37
2022/03/01 11:45:10;;;;;;;4.90;1.80;;;25.90;88.00;;;;;;5085525;28;20047;-45
2022/03/01 11:47:37;;;;;;;5.43;1.85;;;25.90;87.90;;;;;;5085496;28;20086;-38
2022/03/01 11:50:30;;;;;;;5.25;1.67;;;25.90;87.70;;;;;;5085615;28;20033;-36
2022/03/01 11:53:05;;;;;;;4.13;1.45;;;25.90;87.70;;;;;;5080523;28;20020;-39
2022/03/01 11:55:42;;;;;;;8.52;1.67;;;25.80;87.80;;;;;;5085413;28;20346;-35
2022/03/01 11:58:11;;;;;;;8.20;1.75;;;25.80;87.80;;;;;;5085315;28;20027;-35
2022/03/01 12:00:40;;;;;;;5.30;1.95;;;25.80;87.80;;;;;;5085476;28;20035;-37
2022/03/01 12:03:11;;;;;;;4.55;1.40;;;25.70;88.00;;;;;;5085176;28;20232;-36
2022/03/01 12:05:38;;;;;;;8.15;1.63;;;25.70;87.80;;;;;;5085522;28;20190;-40
2022/03/01 12:08:14;;;;;;;5.38;2.10;;;25.70;88.30;;;;;;5084952;28;20021;-35
2022/03/01 12:10:56;;;;;;;3.92;1.55;;;25.70;88.30;;;;;;5085316;28;20032;-38
2022/03/01 12:13:44;;;;;;;4.00;1.70;;;25.60;88.40;;;;;;5084852;28;20017;-40
2022/03/01 12:16:14;;;;;;;4.22;1.60;;;25.60;88.40;;;;;;5085288;28;20059;-37
2022/03/01 12:18:42;;;;;;;7.30;1.92;;;25.60;88.30;;;;;;5084784;28;20016;-36
2022/03/01 12:21:11;;;;;;;4.72;1.90;;;25.60;88.10;;;;;;5085317;28;20051;-36
2022/03/01 12:23:40;;;;;;;6.68;1.58;;;25.60;88.10;;;;;;5084846;28;20032;-36
2022/03/01 12:26:09;;;;;;;4.80;1.73;;;25.60;88.20;;;;;;5084831;28;20094;-36
2022/03/01 12:28:44;;;;;;;5.50;1.98;;;25.70;88.20;;;;;;5084695;28;20028;-37
2022/03/01 12:31:25;;;;;;;5.80;2.00;;;25.70;88.50;;;;;;5084838;28;20064;-40
2022/03/01 12:33:54;;;;;;;6.00;2.13;;;25.70;88.10;;;;;;5084023;28;20032;-36
2022/03/01 12:36:36;;;;;;;3.83;1.83;;;25.70;88.20;;;;;;5084483;28;20347;-38
2022/03/01 12:39:09;;;;;;;6.80;2.20;;;25.70;88.00;;;;;;5084499;28;20029;-36
2022/03/01 12:41:36;;;;;;;7.25;2.20;;;25.70;88.10;;;;;;5084485;28;20048;-39
2022/03/01 12:44:06;;;;;;;10.50;2.97;;;25.70;88.00;;;;;;5084265;28;20032;-40
2022/03/01 12:46:33;;;;;;;10.07;3.50;;;25.80;88.00;;;;;;5084743;28;20029;-39
2022/03/01 12:49:02;;;;;;;6.13;2.30;;;25.80;87.90;;;;;;5084260;28;20032;-36
2022/03/01 12:51:30;;;;;;;6.88;2.72;;;25.80;87.70;;;;;;5084748;28;20036;-41